Time;durP1;ratioP1;P1;durP2;ratioP2;P2;SDS_P1;SDS_P2;PMS_P1;PMS_P2;Temp;Humidity;BMP_temperature;BMP_pressure;BME280_temperature;BME280_humidity;BME280_pressure;Samples;Min_cycle;Max_cycle;Signal;HPM_P1;HPM_P2
2022/10/26 00:01:13;;;;;;;1.48;0.57;;;;;;;20.35;100.00;98654.75;7395031;19;20018;-55
2022/10/26 00:03:41;;;;;;;4.35;0.57;;;;;;;20.33;100.00;98641.19;7394180;19;20014;-55
2022/10/26 00:06:13;;;;;;;1.90;0.20;;;;;;;20.26;100.00;98618.59;7392449;19;20011;-55
2022/10/26 00:08:39;;;;;;;0.20;0.20;;;;;;;20.22;100.00;98640.84;7396011;19;20021;-55
2022/10/26 00:11:07;;;;;;;1.58;0.55;;;;;;;20.21;100.00;98616.72;7393730;19;20007;-55
2022/10/26 00:13:34;;;;;;;1.83;0.22;;;;;;;20.35;100.00;98606.66;7397531;19;20037;-55
2022/10/26 00:16:00;;;;;;;2.92;0.43;;;;;;;20.35;100.00;98615.16;7391848;19;20011;-56
2022/10/26 00:18:27;;;;;;;1.40;0.65;;;;;;;20.39;100.00;98604.19;7395153;19;20038;-56
2022/10/26 00:20:53;;;;;;;3.53;0.65;;;;;;;20.47;100.00;98596.41;7393708;19;20027;-56
2022/10/26 00:23:19;;;;;;;4.25;0.40;;;;;;;20.53;100.00;98611.09;7394442;19;20066;-56
2022/10/26 00:25:53;;;;;;;6.97;0.57;;;;;;;20.63;100.00;98595.00;7391449;19;20011;-56
2022/10/26 00:28:19;;;;;;;1.25;0.52;;;;;;;20.70;100.00;98588.56;7394808;19;20022;-56
2022/10/26 00:30:45;;;;;;;1.35;0.52;;;;;;;20.72;100.00;98588.72;7395880;19;20021;-56
2022/10/26 00:33:12;;;;;;;0.10;0.03;;;;;;;20.52;100.00;98591.88;7393805;19;20032;-56
2022/10/26 00:35:38;;;;;;;1.63;0.25;;;;;;;20.58;100.00;98587.50;7393503;19;20022;-56
2022/10/26 00:38:04;;;;;;;0.63;0.13;;;;;;;20.53;100.00;98585.63;7393919;19;20018;-56
2022/10/26 00:40:30;;;;;;;1.45;0.40;;;;;;;20.56;100.00;98575.25;7391441;19;20109;-56
2022/10/26 00:42:57;;;;;;;0.40;0.10;;;;;;;20.40;100.00;98577.41;7392678;19;20022;-56
2022/10/26 00:45:26;;;;;;;1.55;0.25;;;;;;;20.35;100.00;98586.88;7389292;19;20038;-56
2022/10/26 00:47:58;;;;;;;2.28;0.47;;;;;;;20.15;100.00;98577.34;7392673;19;20018;-56
2022/10/26 00:50:32;;;;;;;0.85;0.30;;;;;;;20.22;100.00;98573.00;7393315;19;20048;-56
2022/10/26 00:53:02;;;;;;;1.30;0.68;;;;;;;20.55;100.00;98563.19;7392011;19;20014;-56
2022/10/26 00:55:33;;;;;;;0.17;0.17;;;;;;;20.56;100.00;98567.50;7393326;19;20339;-56
2022/10/26 00:58:00;;;;;;;;;;;;;;;20.75;100.00;98567.75;7393915;19;20242;-56
2022/10/26 01:00:27;;;;;;;0.70;0.25;;;;;;;20.85;100.00;98559.38;7394973;19;19934;-56
2022/10/26 01:02:56;;;;;;;0.68;0.35;;;;;;;20.83;100.00;98562.81;7392958;19;20038;-56
2022/10/26 01:05:23;;;;;;;5.55;0.30;;;;;;;20.81;100.00;98559.06;7390671;19;20011;-56
2022/10/26 01:07:50;;;;;;;2.47;0.30;;;;;;;20.80;100.00;98546.97;7391793;19;20015;-56
2022/10/26 01:10:17;;;;;;;0.10;0.00;;;;;;;20.85;100.00;98543.16;7391754;19;20010;-56
2022/10/26 01:12:44;;;;;;;1.17;0.57;;;;;;;20.90;100.00;98552.72;7391524;19;20018;-56
2022/10/26 01:15:11;;;;;;;5.22;0.40;;;;;;;20.82;100.00;98561.28;7391098;19;20021;-56
2022/10/26 01:17:46;;;;;;;0.82;0.68;;;;;;;20.87;100.00;98546.16;7391430;19;20011;-56
2022/10/26 01:20:37;;;;;;;1.27;0.50;;;;;;;20.81;100.00;98551.28;7391608;19;20015;-56
2022/10/26 01:23:09;;;;;;;;;;;;;;;20.70;100.00;98545.34;7392445;19;20007;-56
2022/10/26 01:26:17;;;;;;;3.22;0.20;;;;;;;20.82;100.00;98547.16;7391029;19;19918;-56
2022/10/26 01:28:46;;;;;;;0.10;0.10;;;;;;;20.90;100.00;98556.31;7389190;19;20018;-56
2022/10/26 01:31:19;;;;;;;1.08;0.30;;;;;;;20.96;100.00;98556.81;7395059;19;20045;-56
2022/10/26 01:33:55;;;;;;;0.57;0.57;;;;;;;20.96;100.00;98548.34;7391133;19;20066;-56
2022/10/26 01:36:38;;;;;;;0.10;0.10;;;;;;;20.84;100.00;98547.31;7391505;19;20569;-56
2022/10/26 01:39:11;;;;;;;0.38;0.10;;;;;;;20.69;100.00;98538.94;7393856;19;20465;-56
2022/10/26 01:41:52;;;;;;;0.10;0.10;;;;;;;20.77;100.00;98541.72;7390238;19;20026;-56
2022/10/26 01:44:38;;;;;;;0.90;0.10;;;;;;;20.81;100.00;98537.13;7390665;19;20048;-56
2022/10/26 01:47:07;;;;;;;13.10;0.30;;;;;;;20.83;100.00;98536.59;7389619;19;20071;-56
2022/10/26 01:49:41;;;;;;;4.32;0.28;;;;;;;20.86;100.00;98536.16;7394034;19;20343;-56
2022/10/26 01:52:09;;;;;;;0.82;0.30;;;;;;;20.69;100.00;98533.28;7389814;19;20010;-55
2022/10/26 01:54:36;;;;;;;0.17;0.15;;;;;;;21.00;100.00;98531.72;7390464;19;20013;-56
2022/10/26 01:57:05;;;;;;;0.20;0.20;;;;;;;21.05;100.00;98524.34;7391164;19;20022;-56
2022/10/26 01:59:53;;;;;;;0.17;0.13;;;;;;;21.04;100.00;98512.25;7394465;19;20015;-56
2022/10/26 02:02:28;;;;;;;0.10;0.00;;;;;;;21.00;100.00;98509.06;7390892;19;20011;-55
2022/10/26 02:05:04;;;;;;;0.77;0.38;;;;;;;21.17;100.00;98510.44;7390370;19;20740;-55
2022/10/26 02:08:06;;;;;;;7.03;0.60;;;;;;;21.20;100.00;98514.94;7390327;19;20020;-55
2022/10/26 02:10:36;;;;;;;6.63;0.73;;;;;;;21.25;100.00;98511.09;7388752;19;20011;-56
2022/10/26 02:13:08;;;;;;;0.55;0.10;;;;;;;21.29;100.00;98505.81;7390556;19;20006;-56
2022/10/26 02:15:34;;;;;;;1.15;0.40;;;;;;;21.41;100.00;98501.88;7389708;19;20037;-56
2022/10/26 02:18:31;;;;;;;4.57;0.43;;;;;;;21.48;100.00;98494.63;7389827;19;20011;-61
2022/10/26 02:21:08;;;;;;;2.15;0.22;;;;;;;21.28;100.00;98493.72;7387511;19;20010;-61
2022/10/26 02:23:38;;;;;;;0.63;0.35;;;;;;;21.21;100.00;98488.88;7389813;19;20015;-60
2022/10/26 02:26:07;;;;;;;0.13;0.03;;;;;;;21.41;100.00;98489.81;7388324;19;20447;-60
2022/10/26 02:28:37;;;;;;;2.50;0.68;;;;;;;21.50;100.00;98486.31;7391393;19;20006;-60
2022/10/26 02:31:05;;;;;;;0.70;0.47;;;;;;;21.56;100.00;98495.28;7393398;19;20408;-60
2022/10/26 02:33:37;;;;;;;0.30;0.30;;;;;;;21.49;100.00;98490.47;7388946;19;20325;-60
2022/10/26 02:36:07;;;;;;;0.80;0.20;;;;;;;21.59;100.00;98488.47;7386818;19;20014;-60
2022/10/26 02:38:37;;;;;;;2.30;0.40;;;;;;;21.60;100.00;98485.03;7390737;19;20024;-60
2022/10/26 02:41:05;;;;;;;1.58;0.25;;;;;;;21.65;100.00;98481.22;7388626;19;20010;-60
2022/10/26 02:43:40;;;;;;;0.82;0.30;;;;;;;21.65;100.00;98480.47;7388951;19;20040;-60
2022/10/26 02:46:11;;;;;;;3.00;0.52;;;;;;;21.67;100.00;98483.44;7388200;19;20011;-60
2022/10/26 02:48:37;;;;;;;2.65;0.68;;;;;;;21.81;100.00;98484.59;7395731;19;20014;-59
2022/10/26 02:51:07;;;;;;;0.20;0.20;;;;;;;21.66;100.00;98481.94;7397235;19;20050;-60
2022/10/26 02:53:41;;;;;;;0.40;0.28;;;;;;;21.62;100.00;98481.63;7396912;19;20577;-60
2022/10/26 02:56:17;;;;;;;8.88;0.60;;;;;;;21.70;100.00;98471.69;7396937;19;20018;-60
2022/10/26 02:58:46;;;;;;;0.40;0.20;;;;;;;21.70;100.00;98470.97;7397965;19;20087;-60
2022/10/26 03:01:13;;;;;;;0.40;0.20;;;;;;;21.78;100.00;98480.09;7400052;19;20455;-61
2022/10/26 03:03:39;;;;;;;0.90;0.20;;;;;;;21.88;100.00;98476.03;7395880;19;20034;-60
2022/10/26 03:06:06;;;;;;;0.45;0.45;;;;;;;21.88;100.00;98472.44;7394316;19;20021;-60
2022/10/26 03:08:32;;;;;;;3.17;0.63;;;;;;;21.97;100.00;98471.75;7396610;19;20353;-60
2022/10/26 03:10:58;;;;;;;0.38;0.13;;;;;;;21.93;100.00;98465.75;7395631;19;20339;-59
2022/10/26 03:13:24;;;;;;;5.10;0.43;;;;;;;21.87;100.00;98457.50;7395723;19;20017;-59
2022/10/26 03:15:54;;;;;;;0.30;0.20;;;;;;;21.87;100.00;98463.19;7395857;19;20018;-60
2022/10/26 03:18:20;;;;;;;0.70;0.40;;;;;;;21.81;100.00;98459.06;7397445;19;20007;-60
2022/10/26 03:20:47;;;;;;;0.80;0.30;;;;;;;21.69;100.00;98452.44;7394290;19;20498;-59
2022/10/26 03:23:13;;;;;;;0.43;0.17;;;;;;;21.47;100.00;98459.13;7396080;19;20014;-60
2022/10/26 03:25:39;;;;;;;0.45;0.35;;;;;;;21.61;100.00;98463.13;7395383;19;20086;-59
2022/10/26 03:28:06;;;;;;;1.65;0.50;;;;;;;21.66;100.00;98459.28;7399695;19;20035;-60
2022/10/26 03:30:32;;;;;;;0.30;0.13;;;;;;;21.74;100.00;98462.78;7396928;19;20014;-59
2022/10/26 03:32:58;;;;;;;0.25;0.13;;;;;;;21.72;100.00;98459.78;7394566;19;20023;-59
2022/10/26 03:35:24;;;;;;;2.17;0.50;;;;;;;21.70;100.00;98460.34;7394198;19;20031;-59
2022/10/26 03:37:51;;;;;;;2.58;0.22;;;;;;;21.70;100.00;98448.28;7393707;19;20775;-60
2022/10/26 03:40:17;;;;;;;0.47;0.20;;;;;;;21.60;100.00;98455.94;7394820;19;20021;-60
2022/10/26 03:42:43;;;;;;;0.20;0.10;;;;;;;21.63;100.00;98457.63;7394534;19;20416;-58
2022/10/26 03:45:09;;;;;;;1.30;0.30;;;;;;;21.81;100.00;98453.41;7393952;19;20021;-58
2022/10/26 03:47:47;;;;;;;0.20;0.17;;;;;;;21.87;100.00;98445.44;7395412;19;20003;-58
2022/10/26 03:50:16;;;;;;;0.50;0.15;;;;;;;21.87;100.00;98446.16;7393078;19;20102;-58
2022/10/26 03:52:42;;;;;;;1.10;0.25;;;;;;;21.71;100.00;98455.44;7395268;19;20031;-58
2022/10/26 03:55:09;;;;;;;0.77;0.30;;;;;;;21.76;100.00;98441.03;7394139;19;20347;-58
2022/10/26 03:57:43;;;;;;;0.95;0.45;;;;;;;21.95;100.00;98440.41;7393869;19;20018;-58
2022/10/26 04:00:11;;;;;;;1.65;0.25;;;;;;;21.97;100.00;98448.31;7394334;19;20034;-59
2022/10/26 04:02:53;;;;;;;1.05;0.45;;;;;;;21.80;100.00;98451.91;7394980;19;20010;-59
2022/10/26 04:05:19;;;;;;;0.55;0.28;;;;;;;21.95;100.00;98437.56;7393445;19;20038;-58
2022/10/26 04:07:55;;;;;;;8.32;1.80;;;;;;;21.95;100.00;98439.66;7394716;19;20470;-59
2022/10/26 04:10:22;;;;;;;0.10;0.10;;;;;;;22.14;100.00;98440.50;7393609;19;20010;-59
2022/10/26 04:12:48;;;;;;;2.40;0.57;;;;;;;22.29;100.00;98445.94;7396329;19;20007;-60
2022/10/26 04:15:15;;;;;;;0.57;0.30;;;;;;;22.30;100.00;98447.44;7395678;19;20011;-59
2022/10/26 04:17:41;;;;;;;0.10;0.10;;;;;;;22.02;100.00;98450.91;7394037;19;20035;-59
2022/10/26 04:20:08;;;;;;;0.45;0.10;;;;;;;21.82;100.00;98449.25;7395555;19;20034;-59
2022/10/26 04:22:35;;;;;;;3.17;0.50;;;;;;;22.01;100.00;98448.63;7396190;19;20014;-59
2022/10/26 04:25:04;;;;;;;0.20;0.10;;;;;;;21.86;100.00;98458.84;7396906;19;20014;-59
2022/10/26 04:27:31;;;;;;;0.60;0.17;;;;;;;21.87;100.00;98456.78;7399138;19;20010;-60
2022/10/26 04:29:57;;;;;;;6.07;0.30;;;;;;;21.87;100.00;98459.59;7402007;19;20036;-60
2022/10/26 04:32:24;;;;;;;0.43;0.08;;;;;;;21.84;100.00;98466.44;7396062;19;20193;-60
2022/10/26 04:34:53;;;;;;;0.80;0.57;;;;;;;21.82;100.00;98469.09;7397095;19;20473;-59
2022/10/26 04:37:19;;;;;;;0.10;0.00;;;;;;;21.85;100.00;98453.78;7396702;19;20013;-60
2022/10/26 04:39:45;;;;;;;0.22;0.20;;;;;;;21.85;100.00;98450.94;7397560;19;20486;-60
2022/10/26 04:42:11;;;;;;;4.18;0.25;;;;;;;21.93;100.00;98443.09;7391691;19;20107;-59
2022/10/26 04:44:37;;;;;;;1.30;0.10;;;;;;;21.80;100.00;98449.09;7390849;19;20010;-59
2022/10/26 04:47:03;;;;;;;0.17;0.05;;;;;;;21.68;100.00;98459.44;7391035;19;20022;-59
2022/10/26 04:49:29;;;;;;;0.57;0.30;;;;;;;21.65;100.00;98463.47;7395623;19;20011;-59
2022/10/26 04:51:56;;;;;;;1.27;0.40;;;;;;;21.65;100.00;98452.88;7391973;19;20625;-59
2022/10/26 04:54:22;;;;;;;0.10;0.03;;;;;;;21.61;100.00;98469.53;7392720;19;20014;-59
2022/10/26 04:56:49;;;;;;;7.43;0.30;;;;;;;21.49;100.00;98457.22;7392042;19;20074;-59
2022/10/26 04:59:16;;;;;;;0.30;0.20;;;;;;;21.45;100.00;98462.56;7395905;19;20417;-59
2022/10/26 05:01:42;;;;;;;0.77;0.10;;;;;;;21.49;100.00;98464.97;7397135;19;20011;-59
2022/10/26 05:04:08;;;;;;;2.85;0.30;;;;;;;21.29;100.00;98471.81;7391295;19;20007;-58
2022/10/26 05:06:34;;;;;;;1.00;0.10;;;;;;;21.24;100.00;98461.47;7390739;19;20018;-58
2022/10/26 05:09:01;;;;;;;2.30;0.20;;;;;;;21.32;100.00;98464.97;7393469;19;20018;-58
2022/10/26 05:11:27;;;;;;;4.85;0.63;;;;;;;21.19;100.00;98460.41;7389977;19;20010;-57
2022/10/26 05:13:53;;;;;;;0.10;0.10;;;;;;;21.00;100.00;98463.78;7392330;19;20031;-57
2022/10/26 05:16:19;;;;;;;0.45;0.22;;;;;;;20.86;100.00;98464.66;7389857;19;20022;-57
2022/10/26 05:18:49;;;;;;;2.55;0.10;;;;;;;20.78;100.00;98458.31;7394099;19;20022;-58
2022/10/26 05:21:18;;;;;;;0.10;0.10;;;;;;;20.66;100.00;98463.69;7392098;19;20018;-57
2022/10/26 05:23:54;;;;;;;4.88;0.45;;;;;;;20.68;100.00;98466.69;7392444;19;20026;-57
2022/10/26 05:26:21;;;;;;;0.10;0.10;;;;;;;20.64;100.00;98459.97;7391681;19;20518;-57
2022/10/26 05:28:48;;;;;;;0.10;0.00;;;;;;;20.89;100.00;98457.84;7391348;19;20103;-57
2022/10/26 05:31:14;;;;;;;1.40;0.80;;;;;;;21.08;100.00;98475.03;7394969;19;20026;-58
2022/10/26 05:33:40;;;;;;;1.80;0.60;;;;;;;21.04;100.00;98483.19;7391419;19;20052;-58
2022/10/26 05:36:06;;;;;;;2.22;0.63;;;;;;;21.17;100.00;98477.22;7390617;19;20006;-58
2022/10/26 05:38:33;;;;;;;2.65;0.10;;;;;;;20.98;100.00;98460.78;7391281;19;20010;-58
2022/10/26 05:41:00;;;;;;;0.80;0.50;;;;;;;20.94;100.00;98483.06;7391562;19;20019;-58
2022/10/26 05:43:26;;;;;;;0.10;0.10;;;;;;;20.88;100.00;98499.53;7388952;19;20014;-57
2022/10/26 05:45:53;;;;;;;2.38;0.10;;;;;;;21.04;100.00;98503.78;7388493;19;20011;-57
2022/10/26 05:48:19;;;;;;;0.10;0.00;;;;;;;21.08;100.00;98501.28;7391763;19;20030;-57
2022/10/26 05:50:46;;;;;;;0.10;0.10;;;;;;;21.21;100.00;98505.09;7389002;19;20561;-57
2022/10/26 05:53:12;;;;;;;1.00;0.73;;;;;;;21.25;100.00;98505.44;7390667;19;20010;-57
2022/10/26 05:55:39;;;;;;;5.63;0.40;;;;;;;21.16;100.00;98509.69;7391033;19;20019;-57
2022/10/26 05:58:13;;;;;;;0.40;0.20;;;;;;;21.30;100.00;98512.94;7388866;19;20006;-57
2022/10/26 06:00:55;;;;;;;3.75;0.45;;;;;;;21.09;100.00;98511.25;7393436;19;20023;-57
2022/10/26 06:03:21;;;;;;;1.75;0.45;;;;;;;21.16;100.00;98508.97;7389857;19;20014;-57
2022/10/26 06:05:56;;;;;;;16.42;1.98;;;;;;;21.09;100.00;98504.88;7390432;19;20035;-57
2022/10/26 06:08:25;;;;;;;0.10;0.10;;;;;;;21.03;100.00;98502.25;7392810;19;20463;-57
2022/10/26 06:10:52;;;;;;;0.10;0.05;;;;;;;21.01;100.00;98487.91;7393277;19;20042;-57
2022/10/26 06:13:19;;;;;;;0.10;0.00;;;;;;;20.86;100.00;98498.63;7394910;19;20105;-57
2022/10/26 06:16:07;;;;;;;4.00;0.30;;;;;;;20.84;100.00;98502.03;7394336;19;20010;-58
2022/10/26 06:19:04;;;;;;;0.52;0.52;;;;;;;20.81;100.00;98503.19;7395358;19;20038;-58
2022/10/26 06:21:51;;;;;;;0.45;0.15;;;;;;;20.68;100.00;98495.00;7394410;19;20430;-58
2022/10/26 06:24:23;;;;;;;0.00;0.00;;;;;;;20.42;100.00;98489.94;7390205;19;20490;-57
2022/10/26 06:26:52;;;;;;;0.03;0.00;;;;;;;20.42;100.00;98496.31;7394623;19;20438;-56
2022/10/26 06:29:41;;;;;;;4.20;0.55;;;;;;;20.52;100.00;98499.28;7392616;19;20018;-56
2022/10/26 06:32:09;;;;;;;1.00;0.20;;;;;;;20.58;100.00;98502.63;7389152;19;20006;-56
2022/10/26 06:34:41;;;;;;;1.00;0.20;;;;;;;20.63;100.00;98509.38;7388616;19;20007;-56
2022/10/26 06:37:09;;;;;;;0.50;0.13;;;;;;;20.60;100.00;98511.28;7388976;19;20074;-56
2022/10/26 06:39:39;;;;;;;3.88;0.13;;;;;;;20.77;100.00;98508.50;7392596;19;20010;-56
2022/10/26 06:42:06;;;;;;;0.10;0.00;;;;;;;20.61;100.00;98518.44;7389748;19;20015;-57
2022/10/26 06:44:34;;;;;;;0.10;0.10;;;;;;;20.50;100.00;98516.06;7389190;19;20027;-57
2022/10/26 06:47:06;;;;;;;0.10;0.10;;;;;;;20.45;100.00;98521.94;7386112;19;20022;-56
2022/10/26 06:49:36;;;;;;;0.10;0.10;;;;;;;20.60;100.00;98525.44;7392834;19;20014;-57
2022/10/26 06:52:32;;;;;;;0.10;0.00;;;;;;;20.68;100.00;98523.28;7387951;19;20027;-56
2022/10/26 06:54:59;;;;;;;1.00;0.05;;;;;;;20.82;100.00;98526.56;7388612;19;20045;-56
2022/10/26 06:57:32;;;;;;;1.90;0.52;;;;;;;20.79;100.00;98522.81;7388128;19;20351;-56
2022/10/26 07:00:02;;;;;;;1.45;0.57;;;;;;;20.87;100.00;98522.78;7389936;19;20010;-56
2022/10/26 07:02:29;;;;;;;3.00;1.45;;;;;;;20.98;100.00;98523.06;7390703;19;20036;-56
2022/10/26 07:04:55;;;;;;;0.47;0.20;;;;;;;21.29;100.00;98517.13;7391731;19;20100;-56
2022/10/26 07:07:24;;;;;;;0.35;0.10;;;;;;;21.35;100.00;98526.13;7387156;19;20336;-56
2022/10/26 07:09:50;;;;;;;0.40;0.10;;;;;;;21.22;100.00;98523.63;7389774;19;20673;-56
2022/10/26 07:12:16;;;;;;;0.00;0.00;;;;;;;21.16;100.00;98525.94;7386736;19;20018;-56
2022/10/26 07:14:42;;;;;;;1.17;0.38;;;;;;;21.33;100.00;98511.81;7388424;19;20015;-56
2022/10/26 07:17:09;;;;;;;0.00;0.00;;;;;;;21.55;100.00;98510.81;7387541;19;20074;-56
2022/10/26 07:19:35;;;;;;;5.10;0.40;;;;;;;21.51;100.00;98516.88;7391870;19;20014;-56
2022/10/26 07:22:02;;;;;;;3.00;0.10;;;;;;;21.57;100.00;98496.81;7387556;19;20019;-56
2022/10/26 07:24:28;;;;;;;6.18;1.00;;;;;;;21.68;100.00;98480.03;7389244;19;20062;-56
2022/10/26 07:26:56;;;;;;;0.73;0.20;;;;;;;21.66;100.00;98471.38;7393316;19;20031;-56
2022/10/26 07:29:24;;;;;;;0.40;0.17;;;;;;;21.66;100.00;98465.69;7395561;19;20360;-56
2022/10/26 07:31:51;;;;;;;1.55;0.63;;;;;;;21.76;100.00;98474.28;7394824;19;20042;-57
2022/10/26 07:34:18;;;;;;;0.00;0.00;;;;;;;21.70;100.00;98491.53;7394497;19;20422;-57
2022/10/26 07:36:44;;;;;;;0.85;0.52;;;;;;;21.94;100.00;98503.38;7399720;19;20017;-58
2022/10/26 07:39:10;;;;;;;0.10;0.10;;;;;;;22.06;100.00;98519.25;7398570;19;20010;-58
2022/10/26 07:41:36;;;;;;;0.80;0.38;;;;;;;22.19;100.00;98533.06;7396857;19;20102;-58
2022/10/26 07:44:03;;;;;;;0.47;0.30;;;;;;;22.45;100.00;98526.66;7394632;19;20030;-58
2022/10/26 07:46:29;;;;;;;5.93;0.45;;;;;;;22.21;100.00;98541.75;7391775;19;20002;-58
2022/10/26 07:48:55;;;;;;;1.13;0.70;;;;;;;22.24;100.00;98537.72;7397412;19;20086;-58
2022/10/26 07:51:21;;;;;;;1.05;0.45;;;;;;;22.42;100.00;98556.19;7394906;19;20074;-58
2022/10/26 07:53:47;;;;;;;0.10;0.00;;;;;;;22.43;100.00;98545.59;7394689;19;20025;-57
2022/10/26 07:56:14;;;;;;;3.08;0.73;;;;;;;22.00;100.00;98561.31;7392326;19;20015;-57
2022/10/26 07:58:40;;;;;;;0.00;0.00;;;;;;;22.15;100.00;98561.13;7396352;19;20011;-57
2022/10/26 08:01:10;;;;;;;0.00;0.00;;;;;;;22.33;100.00;98576.75;7395445;19;20020;-57
2022/10/26 08:03:36;;;;;;;2.50;0.33;;;;;;;22.40;100.00;98575.91;7394380;19;20369;-57
2022/10/26 08:06:03;;;;;;;0.10;0.00;;;;;;;22.28;100.00;98580.59;7394208;19;20011;-57
2022/10/26 08:08:30;;;;;;;4.20;0.30;;;;;;;22.29;100.00;98590.59;7397654;19;20022;-57
2022/10/26 08:10:57;;;;;;;1.17;0.45;;;;;;;22.13;100.00;98597.81;7396016;19;20010;-57
2022/10/26 08:13:24;;;;;;;0.47;0.30;;;;;;;22.08;100.00;98595.97;7392486;19;20013;-57
2022/10/26 08:15:56;;;;;;;0.08;0.00;;;;;;;22.31;100.00;98596.44;7397309;19;20015;-57
2022/10/26 08:18:22;;;;;;;1.05;0.55;;;;;;;22.25;100.00;98601.63;7395035;19;20010;-58
2022/10/26 08:20:49;;;;;;;0.00;0.00;;;;;;;22.24;100.00;98602.94;7393626;19;20435;-58
2022/10/26 08:23:15;;;;;;;0.00;0.00;;;;;;;22.22;100.00;98599.94;7396331;19;20074;-57
2022/10/26 08:25:41;;;;;;;7.75;0.70;;;;;;;22.28;100.00;98591.97;7396327;19;20020;-57
2022/10/26 08:28:07;;;;;;;0.10;0.00;;;;;;;22.25;100.00;98598.78;7392174;19;20045;-57
2022/10/26 08:30:33;;;;;;;1.10;0.52;;;;;;;22.01;100.00;98590.38;7395281;19;20399;-58
2022/10/26 08:33:04;;;;;;;0.10;0.10;;;;;;;21.73;100.00;98600.13;7391183;19;20073;-57
2022/10/26 08:35:31;;;;;;;1.08;0.40;;;;;;;21.89;100.00;98610.00;7393189;19;20015;-57
2022/10/26 08:37:57;;;;;;;0.55;0.22;;;;;;;22.04;100.00;98618.34;7391460;19;20014;-57
2022/10/26 08:40:29;;;;;;;7.28;0.20;;;;;;;21.89;100.00;98619.25;7391650;19;20019;-57
2022/10/26 08:43:02;;;;;;;0.10;0.00;;;;;;;22.02;100.00;98626.69;7393631;19;20456;-57
2022/10/26 08:45:37;;;;;;;0.00;0.00;;;;;;;21.95;100.00;98621.84;7391326;19;20010;-57
2022/10/26 08:48:28;;;;;;;0.00;0.00;;;;;;;21.77;100.00;98631.63;7392886;19;20006;-56
2022/10/26 08:50:58;;;;;;;0.40;0.25;;;;;;;21.91;100.00;98638.53;7391185;19;20017;-56
2022/10/26 08:53:40;;;;;;;0.20;0.20;;;;;;;21.83;100.00;98638.59;7391758;19;20042;-56
2022/10/26 08:56:18;;;;;;;6.03;0.90;;;;;;;21.59;100.00;98649.97;7392890;19;20010;-57
2022/10/26 08:58:53;;;;;;;2.15;0.70;;;;;;;21.57;100.00;98652.63;7394637;19;20021;-57
2022/10/26 09:01:19;;;;;;;3.00;0.15;;;;;;;21.60;100.00;98637.28;7396329;19;20021;-56
2022/10/26 09:03:45;;;;;;;0.20;0.20;;;;;;;21.61;100.00;98655.81;7392163;19;20475;-56
2022/10/26 09:06:44;;;;;;;1.52;0.52;;;;;;;21.71;100.00;98659.47;7391288;19;20030;-57
2022/10/26 09:09:22;;;;;;;0.10;0.10;;;;;;;21.72;100.00;98673.06;7394774;19;20011;-57
2022/10/26 09:12:05;;;;;;;0.32;0.17;;;;;;;21.66;100.00;98674.63;7392599;19;20045;-57
2022/10/26 09:14:52;;;;;;;3.60;0.13;;;;;;;21.68;100.00;98667.06;7391761;19;20014;-57
2022/10/26 09:17:18;;;;;;;5.60;0.52;;;;;;;21.89;100.00;98669.53;7391871;19;20011;-57
2022/10/26 09:19:56;;;;;;;3.40;0.30;;;;;;;22.15;100.00;98663.22;7396015;19;20387;-58
2022/10/26 09:22:42;;;;;;;0.82;0.40;;;;;;;22.34;100.00;98674.72;7392244;19;20113;-57
2022/10/26 09:25:19;;;;;;;3.10;0.13;;;;;;;22.17;100.00;98679.63;7391881;19;20017;-57
2022/10/26 09:27:58;;;;;;;0.10;0.10;;;;;;;22.48;100.00;98687.19;7395821;19;20014;-57
2022/10/26 09:30:24;;;;;;;2.05;0.32;;;;;;;22.38;100.00;98696.97;7393958;19;20010;-57
2022/10/26 09:33:07;;;;;;;3.67;0.90;;;;;;;22.57;100.00;98697.88;7391554;19;20018;-57
2022/10/26 09:35:43;;;;;;;0.03;0.03;;;;;;;22.77;100.00;98715.06;7392598;19;20338;-56
2022/10/26 09:38:24;;;;;;;0.88;0.13;;;;;;;22.78;100.00;98708.06;7393426;19;20006;-56
2022/10/26 09:40:58;;;;;;;0.10;0.00;;;;;;;22.63;100.00;98711.84;7391699;19;20460;-57
2022/10/26 09:43:49;;;;;;;0.55;0.20;;;;;;;22.69;100.00;98708.72;7389401;19;20007;-57
2022/10/26 09:46:21;;;;;;;0.10;0.00;;;;;;;22.58;100.00;98709.97;7389597;19;20011;-56
2022/10/26 09:48:52;;;;;;;0.00;0.00;;;;;;;22.81;100.00;98715.38;7394409;19;20015;-57
2022/10/26 09:51:19;;;;;;;0.10;0.10;;;;;;;22.96;100.00;98721.59;7389622;19;20010;-57
2022/10/26 09:53:47;;;;;;;0.22;0.22;;;;;;;22.98;100.00;98723.84;7392534;19;20015;-56
2022/10/26 09:56:14;;;;;;;0.17;0.10;;;;;;;23.08;100.00;98733.19;7392505;19;20014;-56
2022/10/26 09:58:49;;;;;;;1.92;0.45;;;;;;;22.98;100.00;98726.69;7389722;19;20011;-57
2022/10/26 10:01:41;;;;;;;3.80;0.85;;;;;;;22.76;100.00;98734.16;7395027;19;20014;-57
2022/10/26 10:04:19;;;;;;;1.05;0.17;;;;;;;22.70;100.00;98732.97;7388040;19;20046;-57
2022/10/26 10:06:47;;;;;;;0.15;0.10;;;;;;;22.58;100.00;98739.13;7389425;19;20035;-56
2022/10/26 10:09:16;;;;;;;0.03;0.03;;;;;;;22.56;100.00;98741.03;7393992;19;20017;-56
2022/10/26 10:11:57;;;;;;;0.35;0.25;;;;;;;22.74;100.00;98741.78;7391289;19;20021;-56
2022/10/26 10:14:27;;;;;;;0.00;0.00;;;;;;;23.02;100.00;98750.47;7390828;19;20075;-57
2022/10/26 10:16:58;;;;;;;0.10;0.10;;;;;;;22.96;100.00;98754.94;7388528;19;20143;-56
2022/10/26 10:19:27;;;;;;;3.15;0.38;;;;;;;23.15;100.00;98757.91;7393769;19;20266;-57
2022/10/26 10:22:15;;;;;;;7.38;0.20;;;;;;;23.12;100.00;98768.34;7390444;19;20014;-56
2022/10/26 10:24:51;;;;;;;0.52;0.30;;;;;;;23.24;100.00;98766.47;7390860;19;20011;-56
2022/10/26 10:27:18;;;;;;;0.68;0.20;;;;;;;23.36;100.00;98778.09;7392100;19;20011;-56
2022/10/26 10:29:48;;;;;;;0.05;0.00;;;;;;;23.52;100.00;98782.19;7392863;19;20779;-56
2022/10/26 10:32:22;;;;;;;1.52;0.77;;;;;;;23.58;100.00;98779.84;7390020;19;20011;-56
2022/10/26 10:34:50;;;;;;;4.18;0.50;;;;;;;23.41;100.00;98788.44;7390512;19;20043;-56
2022/10/26 10:37:45;;;;;;;0.00;0.00;;;;;;;23.19;100.00;98795.91;7390180;19;20388;-56
2022/10/26 10:40:19;;;;;;;0.10;0.00;;;;;;;23.19;100.00;98809.38;7389879;19;20048;-57
2022/10/26 10:42:47;;;;;;;0.00;0.00;;;;;;;23.11;100.00;98794.50;7388998;19;20010;-57
2022/10/26 10:45:22;;;;;;;0.17;0.10;;;;;;;23.24;100.00;98808.31;7389605;19;20070;-57
2022/10/26 10:48:11;;;;;;;1.95;0.10;;;;;;;23.03;100.00;98814.47;7391884;19;20011;-57
2022/10/26 10:51:11;;;;;;;0.80;0.10;;;;;;;22.82;100.00;98817.03;7391304;19;20011;-57
2022/10/26 10:53:50;;;;;;;3.40;0.97;;;;;;;22.65;100.00;98813.44;7389183;19;20042;-57
2022/10/26 10:56:55;;;;;;;0.35;0.25;;;;;;;22.49;100.00;98821.31;7389313;19;20017;-58
2022/10/26 10:59:39;;;;;;;0.00;0.00;;;;;;;22.28;100.00;98801.88;7389426;19;20036;-57
2022/10/26 11:02:05;;;;;;;4.20;0.40;;;;;;;22.15;100.00;98810.69;7389229;19;20003;-57
2022/10/26 11:04:40;;;;;;;4.15;0.20;;;;;;;22.10;100.00;98814.50;7388747;19;20010;-57
2022/10/26 11:07:09;;;;;;;7.35;0.47;;;;;;;22.06;100.00;98824.75;7388094;19;20028;-58
2022/10/26 11:09:40;;;;;;;1.45;0.40;;;;;;;22.02;100.00;98825.16;7395304;19;20021;-57
2022/10/26 11:12:14;;;;;;;2.30;0.77;;;;;;;22.07;100.00;98838.34;7398895;19;20011;-57
2022/10/26 11:14:44;;;;;;;0.35;0.35;;;;;;;22.23;100.00;98833.28;7398885;19;20466;-57
2022/10/26 11:17:21;;;;;;;0.57;0.35;;;;;;;22.42;100.00;98842.75;7398791;19;20017;-57
2022/10/26 11:19:56;;;;;;;0.10;0.10;;;;;;;22.45;100.00;98843.69;7402525;19;20018;-57
2022/10/26 11:22:29;;;;;;;3.60;0.80;;;;;;;22.42;100.00;98844.84;7396424;19;20017;-56
2022/10/26 11:25:02;;;;;;;3.45;0.47;;;;;;;22.59;100.00;98853.41;7397381;19;20042;-56
2022/10/26 11:27:38;;;;;;;0.10;0.00;;;;;;;22.74;100.00;98858.19;7397818;19;20049;-56
2022/10/26 11:30:18;;;;;;;1.33;0.20;;;;;;;22.85;100.00;98857.69;7397429;19;20098;-56
2022/10/26 11:33:14;;;;;;;2.53;0.85;;;;;;;22.79;100.00;98854.31;7398089;19;20019;-56
2022/10/26 11:35:53;;;;;;;0.30;0.10;;;;;;;22.82;100.00;98853.94;7398245;19;20014;-56
2022/10/26 11:38:38;;;;;;;2.53;0.30;;;;;;;22.87;100.00;98866.38;7398796;19;20010;-56
2022/10/26 11:41:10;;;;;;;0.50;0.47;;;;;;;23.41;100.00;98865.16;7394838;19;20816;-56
2022/10/26 11:43:40;;;;;;;5.47;0.10;;;;;;;23.58;100.00;98870.06;7398146;19;20034;-57
2022/10/26 11:46:17;;;;;;;2.38;0.20;;;;;;;23.69;100.00;98878.78;7395351;19;20021;-53